Time,TemperatureF,DewpointF,PressureIn,WindDirection,WindDirectionDegrees,WindSpeedMPH,WindSpeedGustMPH,Humidity,HourlyPrecipIn,Conditions,Clouds,dailyrainin,SoftwareType,DateUTC
2013-07-11 00:11:00,60.4,41.0,29.94,SSW,198,0.0,-999.0,50,-99.99,,,0.00,weatherlink.com 1.10,2013-07-11 06:11:00,
2013-07-11 00:25:00,60.4,41.0,29.94,SSW,198,0.0,-999.0,49,-99.99,,,0.00,weatherlink.com 1.10,2013-07-11 06:25:00,
2013-07-11 00:40:00,60.6,40.0,29.94,SSW,197,1.0,-999.0,47,-99.99,,,0.00,weatherlink.com 1.10,2013-07-11 06:40:00,
2013-07-11 00:56:00,60.2,39.0,29.94,SSW,198,0.0,-999.0,46,-99.99,,,0.00,weatherlink.com 1.10,2013-07-11 06:56:00,
2013-07-11 01:11:00,60.4,39.0,29.94,SSW,198,1.0,-999.0,46,-99.99,,,0.00,weatherlink.com 1.10,2013-07-11 07:11:00,
2013-07-11 01:26:00,60.4,39.0,29.93,SSW,197,0.0,-999.0,45,-99.99,,,0.00,weatherlink.com 1.10,2013-07-11 07:26:00,
2013-07-11 01:41:00,60.5,38.0,29.94,SSW,197,0.0,-999.0,44,-99.99,,,0.00,weatherlink.com 1.10,2013-07-11 07:41:00,
2013-07-11 01:55:00,60.8,38.0,29.93,SSW,196,0.0,-999.0,43,-99.99,,,0.00,weatherlink.com 1.10,2013-07-11 07:55:00,
2013-07-11 02:11:00,62.5,38.0,29.93,SSW,195,1.0,-999.0,40,-99.99,,,0.00,weatherlink.com 1.10,2013-07-11 08:11:00,
2013-07-11 02:25:00,63.3,38.0,29.93,SSW,194,1.0,-999.0,39,-99.99,,,0.00,weatherlink.com 1.10,2013-07-11 08:25:00,
2013-07-11 02:40:00,62.5,38.0,29.92,SSW,194,5.0,-999.0,41,-99.99,,,0.00,weatherlink.com 1.10,2013-07-11 08:40:00,
2013-07-11 02:56:00,57.7,39.0,29.93,WSW,240,0.0,-999.0,50,-99.99,,,0.00,weatherlink.com 1.10,2013-07-11 08:56:00,
2013-07-11 03:10:00,60.1,38.0,29.92,SE,125,4.0,-999.0,44,-99.99,,,0.00,weatherlink.com 1.10,2013-07-11 09:10:00,
2013-07-11 03:26:00,61.6,37.0,29.91,ESE,123,1.0,-999.0,40,-99.99,,,0.00,weatherlink.com 1.10,2013-07-11 09:26:00,
2013-07-11 03:41:00,61.4,36.0,29.91,ESE,123,0.0,-999.0,39,-99.99,,,0.00,weatherlink.com 1.10,2013-07-11 09:41:00,
2013-07-11 03:56:00,61.0,38.0,29.91,ESE,123,0.0,-999.0,42,-99.99,,,0.00,weatherlink.com 1.10,2013-07-11 09:56:00,
2013-07-11 04:10:00,57.9,39.0,29.91,ESE,123,0.0,-999.0,49,-99.99,,,0.00,weatherlink.com 1.10,2013-07-11 10:10:00,
2013-07-11 04:26:00,57.7,36.0,29.91,ESE,123,1.0,-999.0,45,-99.99,,,0.00,weatherlink.com 1.10,2013-07-11 10:26:00,
2013-07-11 04:40:00,59.6,37.0,29.91,SE,126,0.0,-999.0,43,-99.99,,,0.00,weatherlink.com 1.10,2013-07-11 10:40:00,
2013-07-11 04:55:00,59.8,36.0,29.92,SE,126,1.0,-999.0,42,-99.99,,,0.00,weatherlink.com 1.10,2013-07-11 10:55:00,
2013-07-11 05:10:00,59.9,36.0,29.92,SE,128,2.0,-999.0,41,-99.99,,,0.00,weatherlink.com 1.10,2013-07-11 11:10:00,
2013-07-11 05:26:00,59.8,36.0,29.93,SE,134,2.0,-999.0,41,-99.99,,,0.00,weatherlink.com 1.10,2013-07-11 11:26:00,
2013-07-11 05:40:00,60.1,36.0,29.92,SE,141,4.0,-999.0,40,-99.99,,,0.00,weatherlink.com 1.10,2013-07-11 11:40:00,
2013-07-11 05:55:00,59.0,36.0,29.93,SSE,153,1.0,-999.0,43,-99.99,,,0.00,weatherlink.com 1.10,2013-07-11 11:55:00,
2013-07-11 06:11:00,57.7,36.0,29.93,SSE,154,0.0,-999.0,45,-99.99,,,0.00,weatherlink.com 1.10,2013-07-11 12:11:00,
2013-07-11 06:26:00,57.5,36.0,29.93,South,177,1.0,-999.0,45,-99.99,,,0.00,weatherlink.com 1.10,2013-07-11 12:26:00,
2013-07-11 06:40:00,60.5,39.0,29.93,SSE,161,3.0,-999.0,45,-99.99,,,0.00,weatherlink.com 1.10,2013-07-11 12:40:00,
2013-07-11 06:56:00,64.0,41.0,29.93,SE,140,2.0,-999.0,43,-99.99,,,0.00,weatherlink.com 1.10,2013-07-11 12:56:00,
2013-07-11 07:11:00,63.3,45.0,29.93,SE,140,1.0,-999.0,51,-99.99,,,0.00,weatherlink.com 1.10,2013-07-11 13:11:00,
2013-07-11 07:41:00,64.5,46.0,29.92,SE,144,0.0,-999.0,52,-99.99,,,0.00,weatherlink.com 1.10,2013-07-11 13:41:00,
2013-07-11 07:55:00,67.6,48.0,29.92,SE,144,1.0,-999.0,49,-99.99,,,0.00,weatherlink.com 1.10,2013-07-11 13:55:00,
2013-07-11 08:25:00,72.0,50.0,29.91,SE,144,2.0,-999.0,46,-99.99,,,0.00,weatherlink.com 1.10,2013-07-11 14:25:00,
2013-07-11 08:41:00,71.2,50.0,29.91,SSE,149,5.0,-999.0,48,-99.99,,,0.00,weatherlink.com 1.10,2013-07-11 14:41:00,
2013-07-11 08:56:00,70.6,49.0,29.90,SSW,194,5.0,-999.0,47,-99.99,,,0.00,weatherlink.com 1.10,2013-07-11 14:56:00,
2013-07-11 09:10:00,71.6,47.0,29.90,SSW,199,9.0,-999.0,42,-99.99,,,0.00,weatherlink.com 1.10,2013-07-11 15:10:00,
2013-07-11 09:26:00,73.0,44.0,29.90,SSW,202,8.0,-999.0,35,-99.99,,,0.00,weatherlink.com 1.10,2013-07-11 15:26:00,
2013-07-11 09:40:00,73.9,43.0,29.91,SSW,198,12.0,-999.0,33,-99.99,,,0.00,weatherlink.com 1.10,2013-07-11 15:40:00,
2013-07-11 09:56:00,75.8,45.0,29.91,SSW,199,3.0,-999.0,34,-99.99,,,0.00,weatherlink.com 1.10,2013-07-11 15:56:00,
2013-07-11 10:11:00,77.9,43.0,29.90,SSW,208,6.0,-999.0,29,-99.99,,,0.00,weatherlink.com 1.10,2013-07-11 16:11:00,
2013-07-11 10:25:00,77.6,43.0,29.91,South,173,10.0,-999.0,29,-99.99,,,0.00,weatherlink.com 1.10,2013-07-11 16:25:00,
2013-07-11 10:55:00,78.8,42.0,29.91,SSW,205,9.0,-999.0,27,-99.99,,,0.00,weatherlink.com 1.10,2013-07-11 16:55:00,
2013-07-11 11:11:00,80.0,43.0,29.92,SW,216,6.0,-999.0,27,-99.99,,,0.00,weatherlink.com 1.10,2013-07-11 17:11:00,
2013-07-11 11:26:00,78.1,42.0,29.92,SW,215,10.0,-999.0,28,-99.99,,,0.00,weatherlink.com 1.10,2013-07-11 17:26:00,
2013-07-11 11:41:00,78.8,43.0,29.93,SW,217,9.0,-999.0,28,-99.99,,,0.00,weatherlink.com 1.10,2013-07-11 17:41:00,
2013-07-11 12:11:00,79.3,42.0,29.93,SW,226,10.0,-999.0,27,-99.99,,,0.00,weatherlink.com 1.10,2013-07-11 18:11:00,
2013-07-11 12:26:00,78.9,45.0,29.92,SW,230,6.0,-999.0,30,-99.99,,,0.00,weatherlink.com 1.10,2013-07-11 18:26:00,
2013-07-11 12:40:00,77.6,45.0,29.92,WSW,257,6.0,-999.0,32,-99.99,,,0.00,weatherlink.com 1.10,2013-07-11 18:40:00,
2013-07-11 12:56:00,79.7,45.0,29.93,WSW,242,9.0,-999.0,29,-99.99,,,0.00,weatherlink.com 1.10,2013-07-11 18:56:00,
2013-07-11 13:10:00,79.7,44.0,29.92,WSW,241,4.0,-999.0,28,-99.99,,,0.00,weatherlink.com 1.10,2013-07-11 19:10:00,
2013-07-11 13:27:00,80.9,47.0,29.92,WSW,249,10.0,-999.0,30,-99.99,,,0.00,weatherlink.com 1.10,2013-07-11 19:27:00,
2013-07-11 13:41:00,80.7,46.0,29.92,WSW,237,11.0,-999.0,29,-99.99,,,0.00,weatherlink.com 1.10,2013-07-11 19:41:00,
2013-07-11 13:56:00,79.9,48.0,29.93,WSW,245,6.0,-999.0,33,-99.99,,,0.00,weatherlink.com 1.10,2013-07-11 19:56:00,
2013-07-11 14:10:00,81.5,46.0,29.91,WSW,254,12.0,-999.0,29,-99.99,,,0.00,weatherlink.com 1.10,2013-07-11 20:10:00,
2013-07-11 14:26:00,81.7,46.0,29.91,SW,215,10.0,-999.0,28,-99.99,,,0.00,weatherlink.com 1.10,2013-07-11 20:26:00,
2013-07-11 14:40:00,82.5,47.0,29.91,WNW,291,12.0,-999.0,29,-99.99,,,0.00,weatherlink.com 1.10,2013-07-11 20:40:00,
2013-07-11 14:57:00,82.2,48.0,29.91,WNW,302,8.0,-999.0,30,-99.99,,,0.00,weatherlink.com 1.10,2013-07-11 20:57:00,
2013-07-11 15:11:00,80.9,49.0,29.91,West,262,14.0,-999.0,33,-99.99,,,0.00,weatherlink.com 1.10,2013-07-11 21:11:00,
2013-07-11 15:26:00,79.3,49.0,29.91,WSW,256,14.0,-999.0,34,-99.99,,,0.00,weatherlink.com 1.10,2013-07-11 21:26:00,
2013-07-11 15:40:00,76.4,47.0,29.92,West,263,14.0,-999.0,35,-99.99,,,0.00,weatherlink.com 1.10,2013-07-11 21:40:00,
2013-07-11 15:55:00,77.9,47.0,29.92,WSW,254,10.0,-999.0,34,-99.99,,,0.00,weatherlink.com 1.10,2013-07-11 21:55:00,
2013-07-11 16:11:00,78.9,47.0,29.91,WNW,285,13.0,-999.0,33,-99.99,,,0.00,weatherlink.com 1.10,2013-07-11 22:11:00,
2013-07-11 16:25:00,75.2,46.0,29.93,West,272,8.0,-999.0,36,-99.99,,,0.00,weatherlink.com 1.10,2013-07-11 22:25:00,
2013-07-11 16:56:00,72.1,46.0,29.95,WSW,246,8.0,-999.0,40,-99.99,,,0.00,weatherlink.com 1.10,2013-07-11 22:56:00,
2013-07-11 17:10:00,70.4,46.0,29.95,WSW,250,12.0,-999.0,42,-99.99,,,0.00,weatherlink.com 1.10,2013-07-11 23:10:00,
2013-07-11 17:26:00,70.1,46.0,29.96,WSW,251,4.0,-999.0,42,-99.99,,,0.00,weatherlink.com 1.10,2013-07-11 23:26:00,
2013-07-11 17:40:00,69.7,46.0,29.96,SW,232,7.0,-999.0,43,-99.99,,,0.00,weatherlink.com 1.10,2013-07-11 23:40:00,
2013-07-11 17:55:00,68.7,45.0,29.98,WSW,258,6.0,-999.0,43,-99.99,,,0.00,weatherlink.com 1.10,2013-07-11 23:55:00,
2013-07-11 18:11:00,67.6,45.0,29.98,WSW,240,4.0,-999.0,45,-99.99,,,0.00,weatherlink.com 1.10,2013-07-12 00:11:00,
2013-07-11 18:26:00,67.5,45.0,29.98,WSW,240,0.0,-999.0,45,-99.99,,,0.00,weatherlink.com 1.10,2013-07-12 00:26:00,
2013-07-11 18:41:00,64.9,48.0,30.00,NNW,347,6.0,-999.0,54,-99.99,,,0.00,weatherlink.com 1.10,2013-07-12 00:41:00,
2013-07-11 18:56:00,63.8,48.0,30.01,NE,34,10.0,-999.0,57,-99.99,,,0.00,weatherlink.com 1.10,2013-07-12 00:56:00,
2013-07-11 19:10:00,63.0,48.0,30.00,NNE,26,6.0,-999.0,58,-99.99,,,0.00,weatherlink.com 1.10,2013-07-12 01:10:00,
2013-07-11 19:26:00,62.5,48.0,30.02,NNE,32,9.0,-999.0,60,-99.99,,,0.00,weatherlink.com 1.10,2013-07-12 01:26:00,
2013-07-11 19:41:00,61.4,50.0,30.02,NNE,32,6.0,-999.0,66,-99.99,,,0.00,weatherlink.com 1.10,2013-07-12 01:41:00,
2013-07-11 19:57:00,60.2,50.0,30.03,NE,38,4.0,-999.0,69,-99.99,,,0.00,weatherlink.com 1.10,2013-07-12 01:57:00,
2013-07-11 20:26:00,58.0,51.0,30.05,NNE,31,4.0,-999.0,77,-99.99,,,0.00,weatherlink.com 1.10,2013-07-12 02:26:00,
2013-07-11 20:57:00,55.3,50.0,30.05,ENE,59,5.0,-999.0,82,-99.99,,,0.01,weatherlink.com 1.10,2013-07-12 02:57:00,
2013-07-11 21:11:00,55.0,50.0,30.05,NE,55,2.0,-999.0,82,-99.99,,,0.01,weatherlink.com 1.10,2013-07-12 03:11:00,
2013-07-11 21:26:00,55.1,49.0,30.04,NE,53,2.0,-999.0,81,-99.99,,,0.01,weatherlink.com 1.10,2013-07-12 03:26:00,
2013-07-11 21:56:00,55.1,50.0,30.04,ENE,65,3.0,-999.0,83,-99.99,,,0.01,weatherlink.com 1.10,2013-07-12 03:56:00,
2013-07-11 22:10:00,54.8,50.0,30.02,South,183,2.0,-999.0,84,-99.99,,,0.01,weatherlink.com 1.10,2013-07-12 04:10:00,
2013-07-11 22:25:00,54.5,49.0,30.02,South,189,2.0,-999.0,83,-99.99,,,0.01,weatherlink.com 1.10,2013-07-12 04:25:00,
2013-07-11 22:41:00,54.8,49.0,30.00,SW,225,5.0,-999.0,82,-99.99,,,0.01,weatherlink.com 1.10,2013-07-12 04:41:00,
2013-07-11 22:56:00,53.7,49.0,30.00,WSW,252,0.0,-999.0,84,-99.99,,,0.01,weatherlink.com 1.10,2013-07-12 04:56:00,
2013-07-11 23:11:00,53.1,49.0,29.99,WSW,252,0.0,-999.0,85,-99.99,,,0.01,weatherlink.com 1.10,2013-07-12 05:11:00,
2013-07-11 23:26:00,52.8,49.0,29.99,WSW,252,0.0,-999.0,86,-99.99,,,0.01,weatherlink.com 1.10,2013-07-12 05:26:00,
2013-07-11 23:41:00,53.4,49.0,30.00,SSW,207,3.0,-999.0,85,-99.99,,,0.01,weatherlink.com 1.10,2013-07-12 05:41:00,
2013-07-11 23:56:00,54.6,49.0,30.00,SSW,200,3.0,-999.0,80,-99.99,,,0.01,weatherlink.com 1.10,2013-07-12 05:56:00,